| time (UTC) | temp F | wind direction | speed knots | gust knots | rain 1hr in | rain 24hr in | rain mn in | humidity % | barometer mb |
| 20260905083100 | 63 | 0.0 | 0.0 | 0.00 | 0.48 | 0.00 | 77 | 1006.4 | |
| 20260905081601 | 63 | 0.0 | 0.0 | 0.00 | 0.48 | 0.00 | 78 | 1006.4 | |
| 20260905080101 | 63 | 0.0 | 0.0 | 0.00 | 0.48 | 0.00 | 80 | 1006.2 | |
| 20260905074603 | 62 | 0.0 | 0.0 | 0.00 | 0.48 | 0.00 | 83 | 1006.2 | |
| 20260905073102 | 61 | 0.0 | 0.0 | 0.00 | 0.48 | 0.00 | 84 | 1006.2 | |
| 20260905071601 | 60 | 0.0 | 0.0 | 0.00 | 0.48 | 0.00 | 85 | 1005.9 | |
| 20260905070117 | 60 | 0.0 | 0.0 | 0.00 | 0.48 | 0.00 | 86 | 1005.9 | |
| 20260905064557 | 59 | 0.0 | 0.0 | 0.00 | 0.48 | 0.00 | 88 | 1005.8 | |
| 20260905063101 | 58 | 0.0 | 0.0 | 0.00 | 0.48 | 0.00 | 88 | 1005.8 | |
| 20260905061620 | 58 | 0.0 | 0.0 | 0.00 | 0.48 | 0.00 | 88 | 1005.6 | |
| 20260905060118 | 58 | 0.0 | 0.0 | 0.00 | 0.48 | 0.00 | 89 | 1005.5 | |
| 20260905054600 | 57 | 0.0 | 0.0 | 0.00 | 0.48 | 0.00 | 89 | 1005.6 | |
| 20260905053105 | 57 | 0.0 | 0.0 | 0.00 | 0.48 | 0.00 | 89 | 1005.3 | |
| 20260905051604 | 57 | 0.0 | 0.0 | 0.00 | 0.48 | 0.00 | 89 | 1005.2 | |
| 20260905050106 | 56 | 0.0 | 0.0 | 0.00 | 0.48 | 0.00 | 90 | 1005.1 | |
| 20260905044605 | 56 | 0.0 | 0.0 | 0.00 | 0.48 | 0.00 | 91 | 1004.9 | |
| 20260905043104 | 56 | 0.0 | 0.0 | 0.00 | 0.48 | 0.00 | 91 | 1004.5 | |
| 20260905041607 | 56 | 0.0 | 0.0 | 0.00 | 0.48 | 0.00 | 91 | 1004.4 | |
| 20260905040058 | 56 | 0.0 | 0.0 | 0.00 | 0.48 | 0.00 | 91 | 1004.4 | |
| 20260905034613 | 56 | 0.0 | 0.0 | 0.00 | 0.48 | 0.00 | 90 | 1004.4 | |
| 20260905033100 | 56 | 0.0 | 0.0 | 0.00 | 0.48 | 0.00 | 89 | 1004.3 | |
| 20260905031604 | 56 | 0.0 | 0.0 | 0.00 | 0.48 | 0.00 | 89 | 1004.0 | |
| 20260905030105 | 56 | 0.0 | 0.0 | 0.00 | 0.48 | 0.00 | 89 | 1004.0 | |
| 20260905024602 | 56 | 0.0 | 0.0 | 0.00 | 0.48 | 0.00 | 89 | 1003.8 | |
| 20260905023104 | 56 | 0.0 | 0.0 | 0.00 | 0.48 | 0.00 | 89 | 1003.6 | |
| 20260905021604 | 57 | 0.0 | 0.0 | 0.00 | 0.48 | 0.00 | 89 | 1003.4 | |
| 20260905020106 | 57 | 0.0 | 0.0 | 0.00 | 0.48 | 0.00 | 90 | 1003.2 | |
| 20260905014604 | 57 | 0.0 | 0.0 | 0.00 | 0.49 | 0.00 | 91 | 1003.0 | |
| 20260905013110 | 57 | 0.0 | 0.0 | 0.00 | 0.49 | 0.00 | 91 | 1002.8 | |
| 20260905011605 | 57 | 0.0 | 0.0 | 0.00 | 0.49 | 0.00 | 92 | 1002.5 | |
| 20260905010108 | 57 | 0.0 | 0.0 | 0.00 | 0.49 | 0.00 | 92 | 1002.4 | |
| 20260905004601 | 57 | 0.0 | 0.0 | 0.00 | 0.51 | 0.00 | 92 | 1002.4 | |
| 20260905003101 | 57 | 0.0 | 0.0 | 0.00 | 0.51 | 0.00 | 92 | 1002.2 | |
| 20260905001607 | 57 | 0.0 | 0.0 | 0.00 | 0.51 | 0.00 | 92 | 1002.2 | |
| 20260905000114 | 57 | 0.0 | 0.0 | 0.00 | 0.51 | 0.00 | 92 | 1002.0 | |
| 20260904234607 | 57 | 0.0 | 0.0 | 0.00 | 0.51 | 0.00 | 92 | 1002.0 | |
| 20260904233122 | 57 | 0.0 | 0.0 | 0.00 | 0.51 | 0.00 | 92 | 1002.0 | |
| 20260904231609 | 57 | 0.0 | 0.0 | 0.00 | 0.51 | 0.00 | 92 | 1002.0 | |
| 20260904230119 | 57 | 0.0 | 0.0 | 0.00 | 0.51 | 0.00 | 92 | 1001.9 | |
| 20260904224607 | 57 | 0.0 | 0.0 | 0.00 | 0.51 | 0.00 | 93 | 1001.9 | |
| 20260904223132 | 56 | 0.0 | 0.0 | 0.00 | 0.51 | 0.00 | 92 | 1001.8 | |
| 20260904221606 | 56 | 0.0 | 0.0 | 0.00 | 0.51 | 0.00 | 92 | 1001.8 | |
| 20260904220106 | 56 | 0.0 | 0.0 | 0.00 | 0.51 | 0.00 | 92 | 1001.6 | |
| 20260904214604 | 56 | 0.0 | 0.0 | 0.00 | 0.51 | 0.51 | 92 | 1001.5 | |
| 20260904213101 | 56 | 0.0 | 0.0 | 0.00 | 0.51 | 0.51 | 92 | 1001.5 | |
| 20260904211558 | 56 | 0.0 | 0.0 | 0.00 | 0.51 | 0.51 | 92 | 1001.4 | |
| 20260904210124 | 56 | 0.0 | 0.0 | 0.00 | 0.51 | 0.51 | 93 | 1001.3 | |
| 20260904204601 | 57 | 0.0 | 0.0 | 0.00 | 0.51 | 0.51 | 94 | 1000.9 | |
| 20260904203106 | 57 | 0.0 | 0.0 | 0.00 | 0.51 | 0.51 | 95 | 1000.8 | |
| 20260904201608 | 57 | 0.0 | 0.0 | 0.00 | 0.51 | 0.51 | 96 | 1000.6 | |
| 20260904200106 | 57 | 0.0 | 0.0 | 0.00 | 0.51 | 0.51 | 96 | 1000.6 | |
| 20260904194558 | 57 | 0.0 | 0.0 | 0.00 | 0.51 | 0.51 | 96 | 1000.3 | |
| 20260904193125 | 57 | 0.0 | 0.0 | 0.01 | 0.51 | 0.51 | 96 | 1000.4 | |
| 20260904191604 | 57 | 0.0 | 0.0 | 0.03 | 0.51 | 0.51 | 96 | 1000.1 | |
| 20260904190111 | 57 | 0.0 | 0.0 | 0.03 | 0.50 | 0.50 | 95 | 999.9 | |
| 20260904184606 | 56 | 0.0 | 0.0 | 0.04 | 0.50 | 0.50 | 95 | 999.9 | |
| 20260904183104 | 57 | 0.0 | 0.0 | 0.10 | 0.49 | 0.49 | 95 | 999.8 | |
| 20260904181602 | 57 | 0.0 | 0.0 | 0.13 | 0.48 | 0.48 | 94 | 999.7 | |
| 20260904180106 | 57 | 0.0 | 0.0 | 0.12 | 0.47 | 0.47 | 93 | 999.8 | |
| 20260904174606 | 58 | 0.0 | 0.0 | 0.11 | 0.45 | 0.45 | 93 | 999.9 | |
| 20260904173107 | 59 | 0.0 | 0.0 | 0.04 | 0.39 | 0.39 | 93 | 999.8 | |
| 20260904171555 | 59 | 0.0 | 0.0 | 0.00 | 0.34 | 0.34 | 92 | 999.9 | |
| 20260904170056 | 60 | 0.0 | 0.0 | 0.00 | 0.34 | 0.34 | 92 | 999.6 | |
| 20260904164556 | 60 | 0.0 | 0.0 | 0.00 | 0.34 | 0.34 | 92 | 999.5 | |
| 20260904163106 | 60 | 0.0 | 0.0 | 0.00 | 0.34 | 0.34 | 92 | 999.5 | |
| 20260904161610 | 60 | 0.0 | 0.0 | 0.00 | 0.34 | 0.34 | 92 | 999.8 | |
| 20260904160103 | 60 | 0.0 | 0.0 | 0.00 | 0.34 | 0.34 | 93 | 999.8 | |
| 20260904154604 | 60 | 0.0 | 0.0 | 0.00 | 0.34 | 0.34 | 93 | 999.8 | |
| 20260904153102 | 60 | 0.0 | 0.0 | 0.00 | 0.34 | 0.34 | 94 | 1000.0 | |
| 20260904151605 | 60 | 0.0 | 0.0 | 0.00 | 0.34 | 0.34 | 95 | 999.9 | |
| 20260904150105 | 59 | 0.0 | 0.0 | 0.00 | 0.34 | 0.34 | 95 | 999.6 | |
| 20260904144612 | 60 | 0.0 | 0.0 | 0.01 | 0.36 | 0.34 | 96 | 999.8 | |
| 20260904143108 | 60 | 0.0 | 0.0 | 0.04 | 0.36 | 0.34 | 95 | 999.9 | |
| 20260904141605 | 61 | 0.0 | 0.0 | 0.06 | 0.35 | 0.33 | 96 | 1000.0 | |
| 20260904140104 | 61 | 0.0 | 0.0 | 0.07 | 0.35 | 0.33 | 96 | 1000.2 | |
| 20260904134607 | 61 | 0.0 | 0.0 | 0.07 | 0.34 | 0.33 | 96 | 1000.1 | |
| 20260904133107 | 61 | 0.0 | 0.0 | 0.06 | 0.31 | 0.29 | 96 | 1000.1 | |
| 20260904131606 | 61 | 0.0 | 0.0 | 0.05 | 0.29 | 0.27 | 96 | 1000.0 | |
| 20260904130105 | 61 | 0.0 | 0.0 | 0.05 | 0.27 | 0.25 | 96 | 1000.1 | |
| 20260904124606 | 60 | 0.0 | 0.0 | 0.07 | 0.27 | 0.25 | 96 | 1000.1 | |
| 20260904123059 | 60 | 0.0 | 0.0 | 0.08 | 0.25 | 0.23 | 95 | 1000.4 | |
| 20260904121555 | 60 | 0.0 | 0.0 | 0.09 | 0.24 | 0.22 | 95 | 1000.7 | |
| 20260904120105 | 60 | 0.0 | 0.0 | 0.09 | 0.22 | 0.20 | 95 | 1000.9 | |
| 20260904114558 | 61 | 0.0 | 0.0 | 0.08 | 0.20 | 0.18 | 95 | 1001.2 | |
| 20260904113058 | 60 | 0.0 | 0.0 | 0.07 | 0.17 | 0.14 | 94 | 1001.2 | |
| 20260904111558 | 61 | 0.0 | 0.0 | 0.04 | 0.14 | 0.12 | 94 | 1001.3 | |
| 20260904110105 | 61 | 0.0 | 0.0 | 0.03 | 0.13 | 0.11 | 94 | 1001.5 | |
| 20260904104605 | 61 | 0.0 | 0.0 | 0.02 | 0.12 | 0.09 | 94 | 1001.6 | |
| 20260904103058 | 62 | 0.0 | 0.0 | 0.00 | 0.11 | 0.07 | 95 | 1001.7 | |
| 20260904101556 | 61 | 0.0 | 0.0 | 0.00 | 0.11 | 0.07 | 95 | 1002.1 | |
| 20260904100126 | 61 | 0.0 | 0.0 | 0.01 | 0.11 | 0.07 | 95 | 1002.2 | |
| 20260904094600 | 61 | 0.0 | 0.0 | 0.02 | 0.11 | 0.07 | 94 | 1002.5 | |
| 20260904093107 | 60 | 0.0 | 0.0 | 0.03 | 0.11 | 0.07 | 95 | 1002.7 | |
| 20260904091601 | 60 | 0.0 | 0.0 | 0.03 | 0.11 | 0.07 | 94 | 1003.1 | |
| 20260904090058 | 60 | 0.0 | 0.0 | 0.03 | 0.10 | 0.06 | 93 | 1003.3 | |
| 20260904084605 | 60 | 0.0 | 0.0 | 0.01 | 0.12 | 0.04 | 92 | 1003.6 |